GLG7304 ENBR-EHAM
Flight info
| Callsign | GLG7304 |
|---|---|
| Flight time | 1h 25m |
| Altitude | 38000 |
| Route | TUXI4C TUXIL DCT ZOL DCT ATNAK DCT TIPAN DCT WECOW DCT LARDI DCT TOPPA TOPP2A |
| Aircraft | A319/M-SDE3FGHIRWY/LB1 |
Departure
| Time | 2026-05-06 18:50 |
|---|---|
| Airport | Bergen Airport, Flesland (ENBR) |
Arrival
| Time | 2026-05-06 20:16 |
|---|---|
| Airport | Amsterdam Airport Schiphol (EHAM) |
| Time | Latitude | Longitude | Altitude | Speed | Heading |
|---|---|---|---|---|---|
| 2026-05-06 18:12 | 60.28980 | 5.22653 | 173 ft | 0 kts | 156° |
| 2026-05-06 18:38 | 60.28982 | 5.22652 | 173 ft | 2 kts | 156° |
| 2026-05-06 18:38 | 60.29005 | 5.22630 | 173 ft | 4 kts | 153° |
| 2026-05-06 18:38 | 60.29030 | 5.22607 | 173 ft | 4 kts | 176° |
| 2026-05-06 18:38 | 60.29042 | 5.22613 | 174 ft | 0 kts | 246° |
| 2026-05-06 18:43 | 60.29041 | 5.22605 | 174 ft | 2 kts | 257° |
| 2026-05-06 18:44 | 60.29037 | 5.22521 | 172 ft | 10 kts | 263° |
| 2026-05-06 18:44 | 60.29039 | 5.22375 | 167 ft | 13 kts | 314° |
| 2026-05-06 18:44 | 60.29099 | 5.22234 | 163 ft | 16 kts | 328° |
| 2026-05-06 18:44 | 60.29227 | 5.22176 | 163 ft | 22 kts | 351° |
| 2026-05-06 18:45 | 60.29389 | 5.22122 | 158 ft | 25 kts | 351° |
| 2026-05-06 18:45 | 60.29572 | 5.22060 | 151 ft | 29 kts | 349° |
| 2026-05-06 18:45 | 60.29776 | 5.21991 | 148 ft | 30 kts | 351° |
| 2026-05-06 18:45 | 60.29972 | 5.21925 | 156 ft | 27 kts | 351° |
| 2026-05-06 18:46 | 60.30148 | 5.21867 | 164 ft | 24 kts | 350° |
| 2026-05-06 18:46 | 60.30302 | 5.21815 | 168 ft | 12 kts | 350° |
| 2026-05-06 18:46 | 60.30378 | 5.21790 | 172 ft | 10 kts | 351° |
| 2026-05-06 18:46 | 60.30443 | 5.21740 | 173 ft | 10 kts | 302° |
| 2026-05-06 18:47 | 60.30443 | 5.21680 | 173 ft | 0 kts | 263° |
| 2026-05-06 18:48 | 60.30442 | 5.21665 | 173 ft | 5 kts | 262° |
| 2026-05-06 18:48 | 60.30424 | 5.21512 | 171 ft | 14 kts | 250° |
| 2026-05-06 18:49 | 60.30374 | 5.21469 | 169 ft | 0 kts | 169° |
| 2026-05-06 18:49 | 60.30372 | 5.21470 | 169 ft | 2 kts | 169° |
| 2026-05-06 18:49 | 60.30273 | 5.21505 | 165 ft | 45 kts | 171° |
| 2026-05-06 18:50 | 60.29699 | 5.21698 | 150 ft | 118 kts | 171° |
| 2026-05-06 18:50 | 60.28718 | 5.22033 | 354 ft | 153 kts | 170° |
| 2026-05-06 18:50 | 60.27674 | 5.22401 | 1037 ft | 152 kts | 170° |
| 2026-05-06 18:50 | 60.26618 | 5.22754 | 1734 ft | 152 kts | 171° |
| 2026-05-06 18:51 | 60.25548 | 5.23105 | 2274 ft | 165 kts | 171° |
| 2026-05-06 18:51 | 60.24339 | 5.23502 | 2662 ft | 187 kts | 171° |
| 2026-05-06 18:51 | 60.22975 | 5.23953 | 3026 ft | 210 kts | 171° |
| 2026-05-06 18:51 | 60.21468 | 5.24450 | 3449 ft | 231 kts | 172° |
| 2026-05-06 18:52 | 60.19795 | 5.25002 | 3980 ft | 254 kts | 171° |
| 2026-05-06 18:52 | 60.18026 | 5.25592 | 4846 ft | 261 kts | 171° |
| 2026-05-06 18:52 | 60.16219 | 5.26197 | 5788 ft | 265 kts | 172° |
| 2026-05-06 18:52 | 60.14383 | 5.26812 | 6712 ft | 270 kts | 172° |
| 2026-05-06 18:53 | 60.12521 | 5.27434 | 7638 ft | 274 kts | 172° |
| 2026-05-06 18:53 | 60.10689 | 5.28043 | 8509 ft | 278 kts | 172° |
| 2026-05-06 18:53 | 60.08738 | 5.28681 | 9402 ft | 282 kts | 172° |
| 2026-05-06 18:53 | 60.06781 | 5.29245 | 10241 ft | 288 kts | 174° |
| 2026-05-06 18:54 | 60.04721 | 5.29785 | 10611 ft | 311 kts | 175° |
| 2026-05-06 18:54 | 60.02519 | 5.30341 | 11128 ft | 325 kts | 175° |
| 2026-05-06 18:54 | 60.00255 | 5.30917 | 11860 ft | 331 kts | 176° |
| 2026-05-06 18:54 | 59.97947 | 5.31516 | 12596 ft | 337 kts | 177° |
| 2026-05-06 18:55 | 59.95608 | 5.32129 | 13332 ft | 341 kts | 177° |
| 2026-05-06 18:55 | 59.93245 | 5.32757 | 14108 ft | 344 kts | 178° |
| 2026-05-06 18:55 | 59.90831 | 5.33409 | 14867 ft | 347 kts | 178° |
| 2026-05-06 18:55 | 59.88427 | 5.34058 | 15610 ft | 350 kts | 179° |
| 2026-05-06 18:56 | 59.86013 | 5.34705 | 16339 ft | 352 kts | 179° |
| 2026-05-06 18:56 | 59.83572 | 5.35350 | 17050 ft | 354 kts | 180° |
| 2026-05-06 18:56 | 59.81126 | 5.35997 | 17736 ft | 357 kts | 180° |
| 2026-05-06 18:56 | 59.78654 | 5.36613 | 18421 ft | 358 kts | 181° |
| 2026-05-06 18:57 | 59.76169 | 5.37094 | 19068 ft | 360 kts | 183° |
| 2026-05-06 18:57 | 59.73665 | 5.37492 | 19706 ft | 362 kts | 184° |
| 2026-05-06 18:57 | 59.71149 | 5.37856 | 20332 ft | 364 kts | 184° |
| 2026-05-06 18:57 | 59.68616 | 5.38221 | 20942 ft | 367 kts | 184° |
| 2026-05-06 18:58 | 59.66059 | 5.38602 | 21535 ft | 369 kts | 184° |
| 2026-05-06 18:58 | 59.63485 | 5.39027 | 22103 ft | 373 kts | 184° |
| 2026-05-06 18:58 | 59.60932 | 5.38908 | 22646 ft | 364 kts | 195° |
| 2026-05-06 18:58 | 59.59227 | 5.38523 | 23037 ft | 366 kts | 195° |
| 2026-05-06 18:59 | 59.56694 | 5.37937 | 23587 ft | 368 kts | 195° |
| 2026-05-06 18:59 | 59.54139 | 5.37344 | 24132 ft | 370 kts | 195° |
| 2026-05-06 18:59 | 59.51573 | 5.36752 | 24627 ft | 373 kts | 195° |
| 2026-05-06 18:59 | 59.48988 | 5.36162 | 25112 ft | 375 kts | 195° |
| 2026-05-06 19:00 | 59.46385 | 5.35575 | 25590 ft | 378 kts | 195° |
| 2026-05-06 19:00 | 59.43764 | 5.34988 | 26047 ft | 380 kts | 195° |
| 2026-05-06 19:00 | 59.41131 | 5.34398 | 26507 ft | 382 kts | 195° |
| 2026-05-06 19:00 | 59.38479 | 5.33804 | 26933 ft | 385 kts | 195° |
| 2026-05-06 19:01 | 59.35811 | 5.33208 | 27362 ft | 387 kts | 194° |
| 2026-05-06 19:01 | 59.33126 | 5.32609 | 27786 ft | 389 kts | 194° |
| 2026-05-06 19:01 | 59.30431 | 5.32010 | 28200 ft | 391 kts | 194° |
| 2026-05-06 19:01 | 59.27719 | 5.31411 | 28597 ft | 393 kts | 194° |
| 2026-05-06 19:02 | 59.24997 | 5.30809 | 28994 ft | 395 kts | 194° |
| 2026-05-06 19:02 | 59.22255 | 5.30202 | 29366 ft | 397 kts | 194° |
| 2026-05-06 19:02 | 59.19503 | 5.29596 | 29746 ft | 399 kts | 194° |
| 2026-05-06 19:02 | 59.16731 | 5.28983 | 30123 ft | 401 kts | 194° |
| 2026-05-06 19:03 | 59.13912 | 5.28358 | 30471 ft | 404 kts | 194° |
| 2026-05-06 19:03 | 59.11113 | 5.27735 | 30770 ft | 407 kts | 193° |
| 2026-05-06 19:03 | 59.08287 | 5.27110 | 31067 ft | 410 kts | 193° |
| 2026-05-06 19:03 | 59.05441 | 5.26485 | 31347 ft | 413 kts | 193° |
| 2026-05-06 19:04 | 59.02577 | 5.25859 | 31640 ft | 416 kts | 193° |
| 2026-05-06 19:04 | 58.99705 | 5.25234 | 31990 ft | 416 kts | 193° |
| 2026-05-06 19:04 | 58.96823 | 5.24607 | 32399 ft | 416 kts | 193° |
| 2026-05-06 19:04 | 58.93952 | 5.23982 | 32777 ft | 416 kts | 193° |
| 2026-05-06 19:05 | 58.91076 | 5.23353 | 33142 ft | 416 kts | 192° |
| 2026-05-06 19:05 | 58.88191 | 5.22725 | 33525 ft | 417 kts | 192° |
| 2026-05-06 19:05 | 58.85307 | 5.22099 | 33908 ft | 417 kts | 192° |
| 2026-05-06 19:05 | 58.82430 | 5.21478 | 34290 ft | 417 kts | 192° |
| 2026-05-06 19:06 | 58.79548 | 5.20860 | 34664 ft | 417 kts | 192° |
| 2026-05-06 19:06 | 58.76663 | 5.20243 | 34996 ft | 417 kts | 192° |
| 2026-05-06 19:06 | 58.73772 | 5.19627 | 35323 ft | 418 kts | 192° |
| 2026-05-06 19:06 | 58.70878 | 5.19007 | 35649 ft | 419 kts | 192° |
| 2026-05-06 19:07 | 58.67980 | 5.18382 | 35945 ft | 420 kts | 192° |
| 2026-05-06 19:07 | 58.65078 | 5.17754 | 36239 ft | 421 kts | 192° |
| 2026-05-06 19:07 | 58.62161 | 5.17126 | 36519 ft | 422 kts | 192° |
| 2026-05-06 19:07 | 58.59231 | 5.16503 | 36806 ft | 423 kts | 191° |
| 2026-05-06 19:08 | 58.56309 | 5.15884 | 37135 ft | 422 kts | 191° |
| 2026-05-06 19:08 | 58.53391 | 5.15264 | 37475 ft | 421 kts | 191° |
| 2026-05-06 19:08 | 58.50448 | 5.14636 | 37808 ft | 420 kts | 191° |
| 2026-05-06 19:08 | 58.47578 | 5.14024 | 38009 ft | 421 kts | 191° |
| 2026-05-06 19:09 | 58.44668 | 5.13404 | 38054 ft | 421 kts | 191° |
| 2026-05-06 19:09 | 58.38808 | 5.12166 | 38051 ft | 421 kts | 191° |
| 2026-05-06 19:10 | 58.32995 | 5.10939 | 38045 ft | 420 kts | 191° |
| 2026-05-06 19:10 | 58.27180 | 5.09732 | 38045 ft | 421 kts | 191° |
| 2026-05-06 19:11 | 58.21356 | 5.08516 | 38045 ft | 421 kts | 191° |
| 2026-05-06 19:11 | 58.15528 | 5.07286 | 38049 ft | 421 kts | 191° |
| 2026-05-06 19:12 | 58.09699 | 5.06074 | 38055 ft | 421 kts | 191° |
| 2026-05-06 19:12 | 58.03869 | 5.04869 | 38058 ft | 421 kts | 191° |
| 2026-05-06 19:13 | 57.98033 | 5.03658 | 38057 ft | 421 kts | 191° |
| 2026-05-06 19:13 | 57.92216 | 5.02458 | 38058 ft | 421 kts | 191° |
| 2026-05-06 19:14 | 57.86391 | 5.01261 | 38062 ft | 421 kts | 191° |
| 2026-05-06 19:14 | 57.80565 | 5.00071 | 38061 ft | 421 kts | 191° |
| 2026-05-06 19:15 | 57.74745 | 4.98882 | 38059 ft | 420 kts | 191° |
| 2026-05-06 19:15 | 57.68929 | 4.97700 | 38061 ft | 420 kts | 191° |
| 2026-05-06 19:16 | 57.63083 | 4.96520 | 38061 ft | 420 kts | 191° |
| 2026-05-06 19:16 | 57.57269 | 4.95351 | 38064 ft | 420 kts | 191° |
| 2026-05-06 19:17 | 57.51459 | 4.94181 | 38066 ft | 420 kts | 191° |
| 2026-05-06 19:17 | 57.45649 | 4.93008 | 38071 ft | 420 kts | 191° |
| 2026-05-06 19:18 | 57.39847 | 4.91844 | 38073 ft | 419 kts | 191° |
| 2026-05-06 19:18 | 57.34045 | 4.90683 | 38072 ft | 419 kts | 190° |
| 2026-05-06 19:19 | 57.28239 | 4.89546 | 38069 ft | 419 kts | 190° |
| 2026-05-06 19:19 | 57.22444 | 4.88404 | 38068 ft | 419 kts | 190° |
| 2026-05-06 19:20 | 57.16652 | 4.87249 | 38067 ft | 418 kts | 190° |
| 2026-05-06 19:20 | 57.10859 | 4.86106 | 38065 ft | 418 kts | 190° |
| 2026-05-06 19:21 | 57.05068 | 4.84976 | 38064 ft | 419 kts | 190° |
| 2026-05-06 19:21 | 56.99278 | 4.83835 | 38063 ft | 418 kts | 190° |
| 2026-05-06 19:22 | 56.93444 | 4.82708 | 38057 ft | 419 kts | 190° |
| 2026-05-06 19:22 | 56.87685 | 4.81593 | 38057 ft | 419 kts | 190° |
| 2026-05-06 19:23 | 56.81850 | 4.80449 | 38059 ft | 419 kts | 190° |
| 2026-05-06 19:23 | 56.76062 | 4.79321 | 38060 ft | 419 kts | 190° |
| 2026-05-06 19:24 | 56.70259 | 4.78209 | 38060 ft | 419 kts | 190° |
| 2026-05-06 19:24 | 56.64461 | 4.77110 | 38061 ft | 419 kts | 190° |
| 2026-05-06 19:25 | 56.58656 | 4.75997 | 38063 ft | 419 kts | 190° |
| 2026-05-06 19:25 | 56.52857 | 4.74900 | 38065 ft | 419 kts | 190° |
| 2026-05-06 19:26 | 56.47066 | 4.73784 | 38065 ft | 419 kts | 190° |
| 2026-05-06 19:26 | 56.41264 | 4.72671 | 38064 ft | 419 kts | 190° |
| 2026-05-06 19:27 | 56.35466 | 4.71583 | 38062 ft | 419 kts | 189° |
| 2026-05-06 19:27 | 56.29665 | 4.70498 | 38062 ft | 419 kts | 190° |
| 2026-05-06 19:28 | 56.23871 | 4.69401 | 38063 ft | 419 kts | 190° |
| 2026-05-06 19:28 | 56.18161 | 4.68320 | 38062 ft | 419 kts | 190° |
| 2026-05-06 19:29 | 56.12354 | 4.67246 | 38063 ft | 419 kts | 189° |
| 2026-05-06 19:29 | 56.06554 | 4.66165 | 38065 ft | 419 kts | 190° |
| 2026-05-06 19:30 | 56.00723 | 4.65076 | 38065 ft | 419 kts | 190° |
| 2026-05-06 19:30 | 55.95905 | 4.64189 | 38064 ft | 419 kts | 189° |
| 2026-05-06 19:31 | 55.90109 | 4.63125 | 38065 ft | 419 kts | 189° |
| 2026-05-06 19:31 | 55.81414 | 4.61519 | 38064 ft | 419 kts | 189° |
| 2026-05-06 19:32 | 55.75619 | 4.60460 | 38062 ft | 419 kts | 189° |
| 2026-05-06 19:32 | 55.69823 | 4.59401 | 38064 ft | 419 kts | 189° |
| 2026-05-06 19:33 | 55.64024 | 4.58344 | 38064 ft | 419 kts | 189° |
| 2026-05-06 19:33 | 55.58224 | 4.57294 | 38064 ft | 419 kts | 189° |
| 2026-05-06 19:34 | 55.52383 | 4.56254 | 38064 ft | 419 kts | 189° |
| 2026-05-06 19:34 | 55.46588 | 4.55215 | 38060 ft | 419 kts | 189° |
| 2026-05-06 19:35 | 55.40800 | 4.54155 | 38057 ft | 418 kts | 189° |
| 2026-05-06 19:35 | 55.35008 | 4.53102 | 38053 ft | 418 kts | 189° |
| 2026-05-06 19:36 | 55.29218 | 4.52063 | 38050 ft | 418 kts | 189° |
| 2026-05-06 19:36 | 55.23433 | 4.51037 | 38048 ft | 418 kts | 189° |
| 2026-05-06 19:37 | 55.17648 | 4.50018 | 38047 ft | 418 kts | 189° |
| 2026-05-06 19:37 | 55.11869 | 4.48990 | 38045 ft | 418 kts | 189° |
| 2026-05-06 19:38 | 55.06088 | 4.47954 | 38042 ft | 417 kts | 189° |
| 2026-05-06 19:38 | 55.00313 | 4.46946 | 38038 ft | 417 kts | 189° |
| 2026-05-06 19:39 | 54.94532 | 4.45935 | 38039 ft | 417 kts | 189° |
| 2026-05-06 19:39 | 54.88752 | 4.44915 | 38039 ft | 417 kts | 189° |
| 2026-05-06 19:40 | 54.82937 | 4.43898 | 38038 ft | 417 kts | 189° |
| 2026-05-06 19:40 | 54.77160 | 4.42890 | 38037 ft | 418 kts | 189° |
| 2026-05-06 19:41 | 54.71375 | 4.41891 | 38037 ft | 418 kts | 188° |
| 2026-05-06 19:41 | 54.65598 | 4.40902 | 38036 ft | 417 kts | 188° |
| 2026-05-06 19:42 | 54.59890 | 4.39344 | 38034 ft | 413 kts | 200° |
| 2026-05-06 19:42 | 54.54704 | 4.35209 | 38036 ft | 410 kts | 210° |
| 2026-05-06 19:43 | 54.49656 | 4.30612 | 38035 ft | 411 kts | 210° |
| 2026-05-06 19:43 | 54.44598 | 4.26029 | 38035 ft | 411 kts | 210° |
| 2026-05-06 19:44 | 54.39539 | 4.21462 | 38037 ft | 411 kts | 210° |
| 2026-05-06 19:44 | 54.34470 | 4.16892 | 38039 ft | 411 kts | 210° |
| 2026-05-06 19:45 | 54.29407 | 4.12341 | 38037 ft | 411 kts | 209° |
| 2026-05-06 19:45 | 54.24339 | 4.07801 | 38036 ft | 411 kts | 209° |
| 2026-05-06 19:46 | 54.19252 | 4.03261 | 38035 ft | 411 kts | 209° |
| 2026-05-06 19:46 | 54.14180 | 3.98726 | 38037 ft | 411 kts | 209° |
| 2026-05-06 19:47 | 54.11642 | 3.96466 | 37927 ft | 413 kts | 209° |
| 2026-05-06 19:47 | 54.09074 | 3.94179 | 37650 ft | 409 kts | 209° |
| 2026-05-06 19:47 | 54.06568 | 3.91950 | 37213 ft | 405 kts | 209° |
| 2026-05-06 19:47 | 54.04078 | 3.89744 | 36764 ft | 402 kts | 209° |
| 2026-05-06 19:48 | 54.01602 | 3.87561 | 36294 ft | 399 kts | 209° |
| 2026-05-06 19:48 | 53.99140 | 3.85394 | 35827 ft | 397 kts | 210° |
| 2026-05-06 19:48 | 53.96695 | 3.83239 | 35342 ft | 395 kts | 210° |
| 2026-05-06 19:48 | 53.94264 | 3.81095 | 34869 ft | 393 kts | 210° |
| 2026-05-06 19:49 | 53.91841 | 3.78961 | 34382 ft | 391 kts | 210° |
| 2026-05-06 19:49 | 53.89434 | 3.76850 | 33904 ft | 390 kts | 210° |
| 2026-05-06 19:49 | 53.87025 | 3.74742 | 33431 ft | 387 kts | 210° |
| 2026-05-06 19:49 | 53.84638 | 3.72652 | 32963 ft | 385 kts | 210° |
| 2026-05-06 19:50 | 53.82271 | 3.70573 | 32504 ft | 383 kts | 210° |
| 2026-05-06 19:50 | 53.79917 | 3.68506 | 32031 ft | 380 kts | 209° |
| 2026-05-06 19:50 | 53.77573 | 3.66464 | 31572 ft | 379 kts | 209° |
| 2026-05-06 19:50 | 53.75228 | 3.64427 | 31129 ft | 378 kts | 209° |
| 2026-05-06 19:51 | 53.72904 | 3.62399 | 30725 ft | 374 kts | 209° |
| 2026-05-06 19:51 | 53.70605 | 3.60394 | 30301 ft | 371 kts | 209° |
| 2026-05-06 19:51 | 53.68318 | 3.58409 | 29876 ft | 369 kts | 209° |
| 2026-05-06 19:51 | 53.66044 | 3.56442 | 29472 ft | 366 kts | 209° |
| 2026-05-06 19:52 | 53.63754 | 3.54472 | 29066 ft | 364 kts | 207° |
| 2026-05-06 19:52 | 53.61379 | 3.52995 | 28654 ft | 365 kts | 197° |
| 2026-05-06 19:52 | 53.58864 | 3.52317 | 28241 ft | 367 kts | 186° |
| 2026-05-06 19:52 | 53.56317 | 3.52483 | 27825 ft | 368 kts | 175° |
| 2026-05-06 19:53 | 53.53780 | 3.53077 | 27398 ft | 367 kts | 175° |
| 2026-05-06 19:53 | 53.51255 | 3.53662 | 26971 ft | 365 kts | 175° |
| 2026-05-06 19:53 | 53.48713 | 3.54244 | 26529 ft | 363 kts | 175° |
| 2026-05-06 19:53 | 53.46208 | 3.54811 | 26094 ft | 362 kts | 175° |
| 2026-05-06 19:54 | 53.43721 | 3.55371 | 25645 ft | 361 kts | 175° |
| 2026-05-06 19:54 | 53.41239 | 3.55932 | 25195 ft | 359 kts | 175° |
| 2026-05-06 19:54 | 53.38775 | 3.56517 | 24816 ft | 356 kts | 174° |
| 2026-05-06 19:54 | 53.36337 | 3.57189 | 24566 ft | 355 kts | 173° |
| 2026-05-06 19:55 | 53.33911 | 3.57912 | 24287 ft | 353 kts | 173° |
| 2026-05-06 19:55 | 53.31495 | 3.58652 | 24007 ft | 352 kts | 173° |
| 2026-05-06 19:55 | 53.29088 | 3.59386 | 23736 ft | 351 kts | 173° |
| 2026-05-06 19:55 | 53.26696 | 3.60104 | 23453 ft | 349 kts | 173° |
| 2026-05-06 19:56 | 53.24273 | 3.60817 | 23174 ft | 348 kts | 173° |
| 2026-05-06 19:56 | 53.21923 | 3.61498 | 22902 ft | 347 kts | 173° |
| 2026-05-06 19:56 | 53.19517 | 3.62191 | 22621 ft | 346 kts | 173° |
| 2026-05-06 19:56 | 53.17182 | 3.62865 | 22353 ft | 344 kts | 173° |
| 2026-05-06 19:57 | 53.14798 | 3.63561 | 22079 ft | 343 kts | 173° |
| 2026-05-06 19:57 | 53.12448 | 3.64252 | 21806 ft | 342 kts | 173° |
| 2026-05-06 19:57 | 53.10108 | 3.64937 | 21536 ft | 341 kts | 173° |
| 2026-05-06 19:57 | 53.07772 | 3.65610 | 21267 ft | 340 kts | 173° |
| 2026-05-06 19:58 | 53.05450 | 3.66273 | 20997 ft | 339 kts | 173° |
| 2026-05-06 19:58 | 53.03127 | 3.66938 | 20721 ft | 338 kts | 173° |
| 2026-05-06 19:58 | 53.00786 | 3.67611 | 20450 ft | 337 kts | 173° |
| 2026-05-06 19:58 | 52.98480 | 3.68274 | 20184 ft | 336 kts | 173° |
| 2026-05-06 19:59 | 52.96961 | 3.68712 | 20005 ft | 335 kts | 173° |
| 2026-05-06 19:59 | 52.94663 | 3.69370 | 19739 ft | 334 kts | 172° |
| 2026-05-06 19:59 | 52.92376 | 3.70024 | 19471 ft | 333 kts | 172° |
| 2026-05-06 19:59 | 52.90096 | 3.70675 | 19208 ft | 332 kts | 172° |
| 2026-05-06 20:00 | 52.87825 | 3.71324 | 18941 ft | 331 kts | 172° |
| 2026-05-06 20:00 | 52.85556 | 3.71971 | 18680 ft | 330 kts | 172° |
| 2026-05-06 20:00 | 52.83300 | 3.72612 | 18421 ft | 329 kts | 172° |
| 2026-05-06 20:00 | 52.81046 | 3.73252 | 18160 ft | 328 kts | 172° |
| 2026-05-06 20:01 | 52.78797 | 3.73891 | 17892 ft | 327 kts | 172° |
| 2026-05-06 20:01 | 52.76557 | 3.74529 | 17631 ft | 326 kts | 172° |
| 2026-05-06 20:01 | 52.74315 | 3.75072 | 17370 ft | 325 kts | 175° |
| 2026-05-06 20:01 | 52.72075 | 3.75463 | 17109 ft | 323 kts | 176° |
| 2026-05-06 20:02 | 52.69834 | 3.75783 | 16845 ft | 322 kts | 177° |
| 2026-05-06 20:02 | 52.67607 | 3.76083 | 16581 ft | 321 kts | 177° |
| 2026-05-06 20:02 | 52.65381 | 3.76389 | 16323 ft | 320 kts | 176° |
| 2026-05-06 20:02 | 52.63161 | 3.76710 | 16064 ft | 319 kts | 176° |
| 2026-05-06 20:03 | 52.60957 | 3.77129 | 15801 ft | 319 kts | 169° |
| 2026-05-06 20:03 | 52.58880 | 3.78390 | 15540 ft | 320 kts | 152° |
| 2026-05-06 20:03 | 52.57106 | 3.80588 | 15282 ft | 321 kts | 135° |
| 2026-05-06 20:03 | 52.55777 | 3.83579 | 15014 ft | 320 kts | 117° |
| 2026-05-06 20:04 | 52.54922 | 3.86948 | 14754 ft | 320 kts | 111° |
| 2026-05-06 20:04 | 52.54109 | 3.90346 | 14497 ft | 320 kts | 111° |
| 2026-05-06 20:04 | 52.53293 | 3.93733 | 14235 ft | 318 kts | 111° |
| 2026-05-06 20:04 | 52.52477 | 3.97100 | 13973 ft | 317 kts | 112° |
| 2026-05-06 20:05 | 52.51652 | 4.00478 | 13467 ft | 321 kts | 112° |
| 2026-05-06 20:05 | 52.50815 | 4.03895 | 12967 ft | 324 kts | 111° |
| 2026-05-06 20:05 | 52.49973 | 4.07341 | 12472 ft | 327 kts | 111° |
| 2026-05-06 20:05 | 52.49126 | 4.10809 | 11962 ft | 328 kts | 111° |
| 2026-05-06 20:06 | 52.48277 | 4.14283 | 11555 ft | 326 kts | 111° |
| 2026-05-06 20:06 | 52.47438 | 4.17721 | 11090 ft | 323 kts | 111° |
| 2026-05-06 20:06 | 52.46610 | 4.21103 | 10524 ft | 316 kts | 111° |
| 2026-05-06 20:06 | 52.45795 | 4.24411 | 10014 ft | 309 kts | 111° |
| 2026-05-06 20:07 | 52.45095 | 4.27240 | 9703 ft | 298 kts | 111° |
| 2026-05-06 20:07 | 52.44356 | 4.30231 | 9252 ft | 291 kts | 111° |
| 2026-05-06 20:07 | 52.43591 | 4.33254 | 8750 ft | 286 kts | 115° |
| 2026-05-06 20:07 | 52.42410 | 4.35888 | 8297 ft | 283 kts | 136° |
| 2026-05-06 20:08 | 52.40773 | 4.37629 | 7855 ft | 282 kts | 157° |
| 2026-05-06 20:08 | 52.38902 | 4.38311 | 7418 ft | 282 kts | 178° |
| 2026-05-06 20:08 | 52.36943 | 4.38129 | 6977 ft | 284 kts | 184° |
| 2026-05-06 20:08 | 52.34979 | 4.37874 | 6556 ft | 282 kts | 184° |
| 2026-05-06 20:09 | 52.33029 | 4.37625 | 6131 ft | 280 kts | 183° |
| 2026-05-06 20:09 | 52.31120 | 4.37383 | 5711 ft | 277 kts | 183° |
| 2026-05-06 20:09 | 52.29213 | 4.37141 | 5285 ft | 273 kts | 182° |
| 2026-05-06 20:09 | 52.27339 | 4.36901 | 5020 ft | 258 kts | 182° |
| 2026-05-06 20:10 | 52.25627 | 4.36868 | 4885 ft | 236 kts | 167° |
| 2026-05-06 20:10 | 52.24161 | 4.37716 | 4690 ft | 216 kts | 144° |
| 2026-05-06 20:10 | 52.23062 | 4.39271 | 4570 ft | 208 kts | 124° |
| 2026-05-06 20:10 | 52.22346 | 4.41303 | 4353 ft | 207 kts | 111° |
| 2026-05-06 20:11 | 52.21738 | 4.43427 | 4087 ft | 207 kts | 111° |
| 2026-05-06 20:11 | 52.21140 | 4.45567 | 3785 ft | 208 kts | 105° |
| 2026-05-06 20:11 | 52.20883 | 4.47863 | 3544 ft | 202 kts | 88° |
| 2026-05-06 20:11 | 52.20854 | 4.50147 | 3266 ft | 201 kts | 88° |
| 2026-05-06 20:12 | 52.20946 | 4.52427 | 2952 ft | 200 kts | 74° |
| 2026-05-06 20:12 | 52.21480 | 4.54494 | 2706 ft | 198 kts | 57° |
| 2026-05-06 20:12 | 52.22216 | 4.56383 | 2450 ft | 197 kts | 56° |
| 2026-05-06 20:12 | 52.22919 | 4.58198 | 2195 ft | 191 kts | 56° |
| 2026-05-06 20:13 | 52.23616 | 4.59998 | 1944 ft | 182 kts | 56° |
| 2026-05-06 20:13 | 52.24276 | 4.61705 | 1702 ft | 172 kts | 56° |
| 2026-05-06 20:13 | 52.24882 | 4.63274 | 1485 ft | 160 kts | 56° |
| 2026-05-06 20:13 | 52.25440 | 4.64722 | 1290 ft | 143 kts | 56° |
| 2026-05-06 20:14 | 52.25943 | 4.66027 | 1102 ft | 130 kts | 56° |
| 2026-05-06 20:14 | 52.26415 | 4.67250 | 939 ft | 126 kts | 56° |
| 2026-05-06 20:14 | 52.26864 | 4.68413 | 781 ft | 124 kts | 56° |
| 2026-05-06 20:14 | 52.27316 | 4.69585 | 627 ft | 123 kts | 56° |
| 2026-05-06 20:15 | 52.27779 | 4.70788 | 456 ft | 123 kts | 56° |
| 2026-05-06 20:15 | 52.28234 | 4.71966 | 299 ft | 123 kts | 56° |
| 2026-05-06 20:15 | 52.28696 | 4.73156 | 126 ft | 124 kts | 56° |
| 2026-05-06 20:15 | 52.29154 | 4.74349 | 4 ft | 122 kts | 57° |
| 2026-05-06 20:16 | 52.29532 | 4.75330 | -2 ft | 77 kts | 58° |
| 2026-05-06 20:16 | 52.29752 | 4.75778 | -2 ft | 34 kts | 27° |
| 2026-05-06 20:16 | 52.29884 | 4.75890 | -1 ft | 16 kts | 27° |
| 2026-05-06 20:16 | 52.29897 | 4.75902 | -1 ft | 0 kts | 27° |
| 2026-05-06 20:18 | 52.29906 | 4.75909 | -1 ft | 4 kts | 27° |
| 2026-05-06 20:19 | 52.29949 | 4.75945 | -1 ft | 10 kts | 28° |
| 2026-05-06 20:19 | 52.30013 | 4.76040 | -1 ft | 16 kts | 58° |
| 2026-05-06 20:19 | 52.30080 | 4.76217 | -1 ft | 21 kts | 57° |
| 2026-05-06 20:19 | 52.30167 | 4.76440 | -1 ft | 25 kts | 57° |
| 2026-05-06 20:20 | 52.30253 | 4.76669 | -1 ft | 22 kts | 57° |
| 2026-05-06 20:20 | 52.30345 | 4.76680 | -1 ft | 16 kts | 275° |
| 2026-05-06 20:20 | 52.30410 | 4.76535 | -1 ft | 16 kts | 328° |
| 2026-05-06 20:20 | 52.30444 | 4.76501 | -1 ft | 1 kts | 328° |
| 2026-05-06 20:21 | 52.30459 | 4.76485 | -1 ft | 4 kts | 328° |
| 2026-05-06 20:21 | 52.30489 | 4.76454 | -1 ft | 6 kts | 327° |
| 2026-05-06 20:21 | 52.30524 | 4.76478 | -1 ft | 5 kts | 52° |
| 2026-05-06 20:21 | 52.30533 | 4.76503 | -1 ft | 0 kts | 61° |
| 2026-05-06 20:22 | 52.30537 | 4.76515 | -1 ft | 1 kts | 60° |
| 2026-05-06 20:22 | 52.30539 | 4.76520 | -1 ft | 0 kts | 59° |